Airfield :
LOGIN :

Register | Disclaimer

   EN    FR    IT 

 










Legend :    VFR   Marginal VFR   IFR   Intensive IFR   Very Intensive IFR
Visi :
Ceiling :
>= 8 km
>= 3000ft
5 to 8 km
1000 to 3000 ft
1500m to 5 km
500 to 1000 ft
800 to 1500m
200 to 500 ft
< 800m
< 200 ft
Symbols :   Thunderstorms  Fog  Heavy snow  Heavy precipitations  Wind > 20 kt
SIGMETs :     Misc.  Thunderstorms  Icing  Turbulence  Mountain Waves  Volcanic Ashes






- Airport Elevation : 1339 ft


ETHN - Niederstetten

CURRENT METAR :
  • 050550Z 35006KT 3000 -SN BR BKN001 OVC007 01/00 Q1019 RED RED BECMG YLO

EXPIRED METARs :
  • 050520Z 36006KT 5000 -SN BR BKN001 OVC007 01/00 Q1019 RED RED BECMG YLO
  • 050420Z 36007KT 2200 -SN BR BKN001 OVC007 01/00 Q1018 RED
  • 050320Z 36006KT 2200 -SNDZ BR OVC000 00/00 Q1018 RED

TAF TAF ETHN
Valid from the 05 at 06:00 until the 05 at 15:00 UTC


050500Z 0506/0515 02010KT 4000 -RASN BKN001 BKN020
BECMG 0507/0509 02010KT 9999 NSW BKN007 BKN020
TEMPO 0509/0512 02010KT 5000 -RASN OVC005
BECMG 0513/0515 02010KT 9999 NSW SCT015



MET'MAP, your aeronautical weather chart ! - Copyright ORBIFLY December 2007 - Disclaimer

ORBIFLY MET'MAP TEAM :

Programming & Development : Alexandra Zaïnal
Concept & original design : Baudouin d'Aumeries
Assistance for programming : Marc-Olivier Méhu
Technical & hardware support : Manuel Goepfert

Contact : metmap@orbifly.com




SOURCES & CREDITS :

   NOAA